<?xml version="1.0" encoding="UTF-8" standalone="no" ?>
<gpx xmlns="http://www.topografix.com/GPX/1/1" xmlns:xsi="http://www.w3.org/2001/XMLSchema-instance" xsi:schemaLocation="http://www.topografix.com/GPX/1/1 http://www.topografix.com/GPX/1/1/gpx.xsd" version="1.1" creator="VisuGPX - https://www.visugpx.com">
  <metadata>
    <name>DH Plateau des Petites Roches</name>
  </metadata>
  <wpt lat="45.31652" lon="5.89215">
    <ele>909.4</ele>
  </wpt>
  <wpt lat="45.31652" lon="5.89215">
    <ele>909.4</ele>
  </wpt>
  <trk>
    <name><![CDATA[14437966-Sentier Enduro Xa]]></name>
    <extensions>
      <line xmlns="http://www.topografix.com/GPX/gpx_style/0/2">
        <color>FF0000</color>
        <width>4</width>
      </line>
    </extensions>
    <trkseg>
      <trkpt lat="45.31714" lon="5.87804">
        <ele>1151</ele>
        <time>2022-03-21T07:58:53Z</time>
      </trkpt>
      <trkpt lat="45.31742" lon="5.87853">
        <ele>1135</ele>
        <time>2022-03-21T07:59:03Z</time>
      </trkpt>
      <trkpt lat="45.3168" lon="5.87856">
        <ele>1136</ele>
        <time>2022-03-21T07:59:18Z</time>
      </trkpt>
      <trkpt lat="45.31716" lon="5.87929">
        <ele>1113</ele>
        <time>2022-03-21T07:59:32Z</time>
      </trkpt>
      <trkpt lat="45.31659" lon="5.87947">
        <ele>1108</ele>
        <time>2022-03-21T07:59:46Z</time>
      </trkpt>
      <trkpt lat="45.31695" lon="5.88017">
        <ele>1090</ele>
        <time>2022-03-21T08:00:00Z</time>
      </trkpt>
      <trkpt lat="45.31665" lon="5.88038">
        <ele>1085</ele>
        <time>2022-03-21T08:00:08Z</time>
      </trkpt>
      <trkpt lat="45.31671" lon="5.88083">
        <ele>1077</ele>
        <time>2022-03-21T08:00:16Z</time>
      </trkpt>
      <trkpt lat="45.31644" lon="5.88126">
        <ele>1069</ele>
        <time>2022-03-21T08:00:25Z</time>
      </trkpt>
      <trkpt lat="45.31644" lon="5.88193">
        <ele>1057</ele>
        <time>2022-03-21T08:00:36Z</time>
      </trkpt>
      <trkpt lat="45.31612" lon="5.88208">
        <ele>1053</ele>
        <time>2022-03-21T08:00:44Z</time>
      </trkpt>
      <trkpt lat="45.31644" lon="5.88271">
        <ele>1043</ele>
        <time>2022-03-21T08:00:57Z</time>
      </trkpt>
      <trkpt lat="45.31618" lon="5.88293">
        <ele>1037</ele>
        <time>2022-03-21T08:01:04Z</time>
      </trkpt>
      <trkpt lat="45.31667" lon="5.88341">
        <ele>1033</ele>
        <time>2022-03-21T08:01:18Z</time>
      </trkpt>
      <trkpt lat="45.31652" lon="5.88387">
        <ele>1021</ele>
        <time>2022-03-21T08:01:26Z</time>
      </trkpt>
      <trkpt lat="45.31697" lon="5.88435">
        <ele>1019</ele>
        <time>2022-03-21T08:01:39Z</time>
      </trkpt>
      <trkpt lat="45.31671" lon="5.8846">
        <ele>1009</ele>
        <time>2022-03-21T08:01:47Z</time>
      </trkpt>
      <trkpt lat="45.31697" lon="5.88514">
        <ele>1004</ele>
        <time>2022-03-21T08:01:57Z</time>
      </trkpt>
      <trkpt lat="45.31667" lon="5.88545">
        <ele>994</ele>
        <time>2022-03-21T08:02:06Z</time>
      </trkpt>
      <trkpt lat="45.3168" lon="5.88596">
        <ele>988</ele>
        <time>2022-03-21T08:02:15Z</time>
      </trkpt>
      <trkpt lat="45.31648" lon="5.8862">
        <ele>980</ele>
        <time>2022-03-21T08:02:23Z</time>
      </trkpt>
      <trkpt lat="45.31637" lon="5.88672">
        <ele>971</ele>
        <time>2022-03-21T08:02:32Z</time>
      </trkpt>
    </trkseg>
  </trk>
</gpx>